createdAt,value
2022-10-04T00:01:47.630Z,7.07
2022-10-04T00:06:58.226Z,7.00
2022-10-04T00:12:03.709Z,6.70
2022-10-04T00:17:12.428Z,6.43
2022-10-04T00:22:21.754Z,6.10
2022-10-04T00:27:26.780Z,6.57
2022-10-04T00:32:31.603Z,6.67
2022-10-04T00:37:58.296Z,6.17
2022-10-04T00:43:04.194Z,5.73
2022-10-04T00:48:31.456Z,6.83
2022-10-04T00:53:46.157Z,6.83
2022-10-04T00:59:11.265Z,5.83
2022-10-04T01:04:25.789Z,5.77
2022-10-04T01:09:33.600Z,6.73
2022-10-04T01:14:52.531Z,6.17
2022-10-04T01:19:56.234Z,5.83
2022-10-04T01:25:00.544Z,6.27
2022-10-04T01:30:09.252Z,6.40
2022-10-04T01:35:14.523Z,6.43
2022-10-04T01:40:18.849Z,6.40
2022-10-04T01:45:29.254Z,6.10
2022-10-04T01:50:35.616Z,5.97
2022-10-04T01:55:43.367Z,6.50
2022-10-04T02:00:52.592Z,6.63
2022-10-04T02:06:00.280Z,6.80
2022-10-04T02:11:06.572Z,6.83
2022-10-04T02:16:13.316Z,6.77
2022-10-04T02:21:18.016Z,6.43
2022-10-04T02:26:22.578Z,6.80
2022-10-04T02:31:43.955Z,7.57
2022-10-04T02:36:51.841Z,6.03
2022-10-04T02:41:59.293Z,7.70
2022-10-04T02:47:10.013Z,8.00
2022-10-04T02:52:19.558Z,8.07
2022-10-04T02:57:24.820Z,8.17
2022-10-04T03:02:30.497Z,8.13
2022-10-04T03:07:36.025Z,7.93
2022-10-04T03:12:40.963Z,8.73
2022-10-04T03:17:44.984Z,9.30
2022-10-04T03:22:52.081Z,9.83
2022-10-04T03:28:00.711Z,8.97
2022-10-04T03:33:04.629Z,9.53
2022-10-04T03:38:10.184Z,9.13
2022-10-04T03:43:15.579Z,10.30
2022-10-04T03:48:27.193Z,8.93
2022-10-04T03:53:37.668Z,8.77
2022-10-04T03:58:42.189Z,8.90
2022-10-04T04:03:56.055Z,8.80
2022-10-04T04:09:00.472Z,8.67
2022-10-04T04:14:10.136Z,9.37
2022-10-04T04:19:16.908Z,9.93
2022-10-04T04:24:26.398Z,8.57
2022-10-04T04:29:37.409Z,9.50
2022-10-04T04:34:52.895Z,9.03
2022-10-04T04:39:56.646Z,9.63
2022-10-04T04:45:04.358Z,10.10
2022-10-04T04:50:12.908Z,9.50
2022-10-04T04:55:20.070Z,9.97
2022-10-04T05:00:31.065Z,9.57
2022-10-04T05:05:34.729Z,9.10
2022-10-04T05:10:37.869Z,8.83
2022-10-04T05:15:43.697Z,9.37
2022-10-04T05:20:50.690Z,8.70
2022-10-04T05:25:53.880Z,9.70
2022-10-04T05:31:08.952Z,9.70
2022-10-04T05:36:39.482Z,9.77
2022-10-04T05:41:49.869Z,9.23
2022-10-04T05:46:55.749Z,9.30
2022-10-04T05:52:01.173Z,10.07
2022-10-04T05:57:20.686Z,10.30
2022-10-04T06:02:38.914Z,10.47
2022-10-04T06:07:44.614Z,10.83
2022-10-04T06:12:57.334Z,10.73
2022-10-04T06:18:18.480Z,9.73
2022-10-04T06:23:22.234Z,9.60
2022-10-04T06:28:30.635Z,9.63
2022-10-04T06:33:54.418Z,10.37
2022-10-04T06:39:32.626Z,9.43
2022-10-04T06:44:46.548Z,9.77
2022-10-04T06:49:57.955Z,9.97
2022-10-04T06:55:30.456Z,9.70
2022-10-04T07:00:38.035Z,9.27
2022-10-04T07:05:47.220Z,9.43
2022-10-04T07:10:56.047Z,9.80
2022-10-04T07:16:04.515Z,10.00
2022-10-04T07:21:13.504Z,8.80
2022-10-04T07:26:24.784Z,8.83
2022-10-04T07:31:30.979Z,8.83
2022-10-04T07:36:45.873Z,9.00
2022-10-04T07:41:53.386Z,9.13
2022-10-04T07:47:02.137Z,9.40
2022-10-04T07:52:39.471Z,8.87
2022-10-04T07:57:50.969Z,8.97
2022-10-04T08:03:16.113Z,9.10
2022-10-04T08:08:34.995Z,8.90
2022-10-04T08:13:53.308Z,8.23
2022-10-04T08:19:13.031Z,7.57
2022-10-04T08:24:25.730Z,8.00
2022-10-04T08:29:53.528Z,8.90
2022-10-04T08:35:11.572Z,8.73
2022-10-04T08:41:05.202Z,7.73
2022-10-04T08:46:33.906Z,8.33
2022-10-04T08:52:13.883Z,7.20
2022-10-04T08:57:45.998Z,7.20
2022-10-04T09:03:13.685Z,7.03
2022-10-04T09:08:48.061Z,7.03
2022-10-04T09:14:09.531Z,6.37
2022-10-04T09:19:22.278Z,7.30
2022-10-04T09:24:58.607Z,7.18
2022-10-04T09:30:16.203Z,6.63
2022-10-04T09:35:51.929Z,6.60
2022-10-04T09:41:34.553Z,6.35
2022-10-04T09:47:21.591Z,6.00
2022-10-04T09:52:44.349Z,6.53
2022-10-04T09:58:08.335Z,5.60
2022-10-04T10:03:42.184Z,5.95
2022-10-04T10:08:58.715Z,5.57
2022-10-04T10:14:26.340Z,5.25
2022-10-04T10:20:05.603Z,5.05
2022-10-04T10:25:25.264Z,5.10
2022-10-04T10:30:36.543Z,4.80
2022-10-04T10:35:53.656Z,4.60
2022-10-04T10:41:19.567Z,5.38
2022-10-04T10:46:38.062Z,4.53
2022-10-04T10:52:28.984Z,4.47
2022-10-04T10:57:53.676Z,5.00
2022-10-04T11:03:22.999Z,4.55
2022-10-04T11:09:08.463Z,5.10
2022-10-04T11:14:40.975Z,4.95
2022-10-04T11:20:21.864Z,5.00
2022-10-04T11:25:56.890Z,5.40
2022-10-04T11:31:34.316Z,5.15
2022-10-04T11:36:53.997Z,5.18
2022-10-04T11:42:14.135Z,5.10
2022-10-04T11:47:36.156Z,4.35
2022-10-04T11:53:18.288Z,4.68
2022-10-04T11:58:32.845Z,4.60
2022-10-04T12:04:01.397Z,5.20
2022-10-04T12:09:17.270Z,5.22
2022-10-04T12:14:33.935Z,4.72
2022-10-04T12:19:55.362Z,4.93
2022-10-04T12:25:48.906Z,4.88
2022-10-04T12:31:17.367Z,5.28
2022-10-04T12:36:36.860Z,4.35
2022-10-04T12:41:51.522Z,4.80
2022-10-04T12:47:02.364Z,4.78
2022-10-04T12:52:13.353Z,4.70
2022-10-04T12:57:31.068Z,5.30
2022-10-04T13:02:52.251Z,4.50
2022-10-04T13:08:09.296Z,4.10
2022-10-04T13:13:54.298Z,4.20
2022-10-04T13:19:05.966Z,4.40
2022-10-04T13:24:24.088Z,4.35
2022-10-04T13:29:33.772Z,4.70
2022-10-04T13:34:46.202Z,4.22
2022-10-04T13:40:09.160Z,3.97
2022-10-04T13:45:45.736Z,4.00
2022-10-04T13:51:04.293Z,4.65
2022-10-04T13:56:40.205Z,3.83
2022-10-04T14:02:13.945Z,3.67
2022-10-04T14:07:35.778Z,3.65
2022-10-04T14:12:59.684Z,4.07
2022-10-04T14:18:29.060Z,3.95
2022-10-04T14:24:08.632Z,4.40
2022-10-04T14:29:35.624Z,3.88
2022-10-04T14:34:56.034Z,3.97
2022-10-04T14:40:21.912Z,4.30
2022-10-04T14:45:43.907Z,3.42
2022-10-04T14:50:58.953Z,4.22
2022-10-04T14:56:51.168Z,3.83
2022-10-04T15:02:22.295Z,3.80
2022-10-04T15:07:33.022Z,3.47
2022-10-04T15:13:16.603Z,3.83
2022-10-04T15:18:47.061Z,3.40
2022-10-04T15:23:55.796Z,3.67
2022-10-04T15:29:08.726Z,4.13
2022-10-04T15:34:33.737Z,3.95
2022-10-04T15:40:10.835Z,3.55
2022-10-04T15:45:50.971Z,3.45
2022-10-04T15:51:06.431Z,3.28
2022-10-04T15:56:24.892Z,3.55
2022-10-04T16:01:46.000Z,3.17
2022-10-04T16:06:56.326Z,3.30
2022-10-04T16:12:07.328Z,3.20
2022-10-04T16:17:30.636Z,3.63
2022-10-04T16:22:38.342Z,3.33
2022-10-04T16:27:49.390Z,3.42
2022-10-04T16:33:07.260Z,3.70
2022-10-04T16:38:24.741Z,3.47
2022-10-04T16:43:30.891Z,3.38
2022-10-04T16:48:47.468Z,3.50
2022-10-04T16:53:59.473Z,3.50
2022-10-04T16:59:04.249Z,3.88
2022-10-04T17:04:39.287Z,3.70
2022-10-04T17:09:49.900Z,3.75
2022-10-04T17:15:21.016Z,4.28
2022-10-04T17:20:31.806Z,4.32
2022-10-04T17:25:45.571Z,3.75
2022-10-04T17:30:57.263Z,3.78
2022-10-04T17:36:20.057Z,4.05
2022-10-04T17:41:42.176Z,4.15
2022-10-04T17:46:51.397Z,3.90
2022-10-04T17:52:15.097Z,4.20
2022-10-04T17:57:30.752Z,4.10
2022-10-04T18:02:50.329Z,4.05
2022-10-04T18:07:57.800Z,4.28
2022-10-04T18:13:07.178Z,3.83
2022-10-04T18:18:18.843Z,4.18
2022-10-04T18:23:27.328Z,4.25
2022-10-04T18:28:34.797Z,4.38
2022-10-04T18:33:50.138Z,4.20
2022-10-04T18:39:17.604Z,3.20
2022-10-04T18:44:28.815Z,3.70
2022-10-04T18:49:46.054Z,3.85
2022-10-04T18:55:02.776Z,3.80
2022-10-04T19:00:41.696Z,4.47
2022-10-04T19:05:52.234Z,3.40
2022-10-04T19:11:03.429Z,4.00
2022-10-04T19:16:25.941Z,4.10
2022-10-04T19:21:36.855Z,3.95
2022-10-04T19:26:42.166Z,4.20
2022-10-04T19:31:55.764Z,4.20
2022-10-04T19:37:02.690Z,3.88
2022-10-04T19:42:12.764Z,4.60
2022-10-04T19:47:35.263Z,4.50
2022-10-04T19:52:46.749Z,3.97
2022-10-04T19:57:53.587Z,4.05
2022-10-04T20:02:58.003Z,4.03
2022-10-04T20:08:05.157Z,4.03
2022-10-04T20:13:21.194Z,4.53
2022-10-04T20:18:58.647Z,3.53
2022-10-04T20:24:01.762Z,4.47
2022-10-04T20:29:04.911Z,4.55
2022-10-04T20:34:49.263Z,4.85
2022-10-04T20:40:01.208Z,4.43
2022-10-04T20:45:22.138Z,4.68
2022-10-04T20:50:49.713Z,4.82
2022-10-04T20:56:09.099Z,5.40
2022-10-04T21:01:40.805Z,5.03
2022-10-04T21:06:55.249Z,5.18
2022-10-04T21:11:59.345Z,5.40
2022-10-04T21:17:03.421Z,5.32
2022-10-04T21:22:08.712Z,5.45
2022-10-04T21:27:16.156Z,5.13
2022-10-04T21:32:19.415Z,5.43
2022-10-04T21:37:23.844Z,5.45
2022-10-04T21:42:26.802Z,5.68
2022-10-04T21:47:29.682Z,5.38
2022-10-04T21:52:34.047Z,5.60
2022-10-04T21:57:37.088Z,5.78
2022-10-04T22:02:41.116Z,5.93
2022-10-04T22:07:45.683Z,6.20
2022-10-04T22:12:48.546Z,6.05
2022-10-04T22:17:51.439Z,5.88
2022-10-04T22:22:57.595Z,6.15
2022-10-04T22:28:01.271Z,5.97
2022-10-04T22:33:04.420Z,6.32
2022-10-04T22:38:10.660Z,6.20
2022-10-04T22:43:15.342Z,5.97
2022-10-04T22:48:20.480Z,6.15
2022-10-04T22:53:25.079Z,6.53
2022-10-04T22:58:28.038Z,6.80
2022-10-04T23:03:32.307Z,6.38
2022-10-04T23:08:36.736Z,6.00
2022-10-04T23:13:39.799Z,6.15
2022-10-04T23:18:42.761Z,6.40
2022-10-04T23:23:48.065Z,7.65
2022-10-04T23:28:51.093Z,6.78
2022-10-04T23:33:56.538Z,5.93
2022-10-04T23:39:02.873Z,6.38
2022-10-04T23:44:43.361Z,6.18
2022-10-04T23:50:33.140Z,6.20
2022-10-04T23:55:39.951Z,6.35
